FW8095 Weather Reports


Display with metric or nautical units.
time (UTC)temp
F
wind
direction
speed
MPH
gust
MPH
rain 1hr
in
rain 24hr
in
rain mn
in
humidity
%
barometer
mb
20210928014525 69 0 0.0 0.0 0.00 0.01 0.01 86 1018.3
20210928013032 69 0 0.0 0.0 0.00 0.01 0.01 85 1018.2
20210928011556 70 0 0.0 0.0 0.00 0.01 0.01 83 1018.1
20210928010028 71 0 0.0 0.0 0.00 0.01 0.01 82 1018.1
20210928004540 71 0 0.0 0.0 0.00 0.01 0.01 79 1018.0
20210928003028 72 0 0.0 0.0 0.00 0.01 0.01 77 1018.0
20210928001525 72 0 0.0 0.0 0.00 0.01 0.01 77 1017.9
20210928000036 72 0 0.0 0.0 0.00 0.01 0.01 75 1017.9
20210927234542 72 0 0.0 1.0 0.00 0.01 0.01 76 1017.8
20210927233050 73 0 0.0 0.0 0.00 0.01 0.01 76 1017.7
20210927231608 73 0 0.0 0.0 0.00 0.01 0.01 75 1017.6
20210927230035 73 0 0.0 0.0 0.01 0.01 0.01 74 1017.6
20210927224537 73 0 0.0 0.0 0.01 0.01 0.01 75 1017.8
20210927223036 73 0 0.0 0.0 0.01 0.01 0.01 73 1017.6
20210927221614 74 75 0.0 1.0 0.01 0.01 0.01 73 1017.7
20210927220039 76 0 0.0 0.0 0.00 0.00 0.00 72 1017.6
20210927214540 78 0 0.0 1.0 0.00 0.00 0.00 66 1017.7
20210927213058 80 0 0.0 1.0 0.00 0.00 0.00 64 1017.6
20210927211610 80 214 0.0 2.0 0.00 0.00 0.00 59 1017.6
20210927210035 81 240 1.0 4.0 0.00 0.00 0.00 56 1017.6
20210927204534 81 226 1.0 5.0 0.00 0.00 0.00 52 1017.7
20210927203029 81 244 1.0 2.0 0.00 0.00 0.00 55 1017.9
20210927201529 82 188 1.0 3.0 0.00 0.00 0.00 53 1018.0
20210927200105 83 0 0.0 2.0 0.00 0.00 0.00 56 1018.1
20210927194558 84 172 2.0 4.0 0.00 0.00 0.00 50 1018.2
20210927193103 85 116 0.0 3.0 0.00 0.00 0.00 51 1018.5
20210927191526 84 321 0.0 2.0 0.00 0.00 0.00 51 1018.7
20210927190044 85 282 2.0 6.0 0.00 0.00 0.00 51 1019.0
20210927184602 86 304 1.0 3.0 0.00 0.00 0.00 52 1019.3
20210927183036 86 255 0.0 2.0 0.00 0.00 0.00 49 1019.4
20210927181550 84 245 0.0 5.0 0.00 0.00 0.00 55 1019.7
20210927180030 84 84 1.0 3.0 0.00 0.00 0.00 53 1020.0
20210927174600 84 35 0.0 5.0 0.00 0.00 0.00 55 1020.2
20210927173035 84 295 0.0 3.0 0.00 0.00 0.00 53 1020.5
20210927171620 84 294 1.0 4.0 0.00 0.00 0.00 53 1020.7
20210927170111 83 92 1.0 3.0 0.00 0.00 0.00 55 1020.4
20210927164544 81 103 1.0 4.0 0.00 0.00 0.00 60 1020.7
20210927163041 82 87 0.0 2.0 0.00 0.00 0.00 59 1020.9
20210927161608 81 97 1.0 3.0 0.00 0.00 0.00 61 1021.1
20210927160044 81 89 1.0 2.0 0.00 0.00 0.00 61 1021.1
20210927154550 80 266 1.0 2.0 0.00 0.00 0.00 63 1021.1
20210927153103 78 69 1.0 3.0 0.00 0.00 0.00 65 1021.2
20210927151534 77 278 0.0 1.0 0.00 0.00 0.00 70 1021.3
20210927150036 75 56 1.0 3.0 0.00 0.00 0.00 71 1021.3
20210927144528 74 87 1.0 2.0 0.00 0.00 0.00 73 1021.2
20210927143101 71 226 1.0 3.0 0.00 0.00 0.00 78 1021.3
20210927141532 70 72 0.0 2.0 0.00 0.00 0.00 80 1021.2
20210927140030 69 129 0.0 1.0 0.00 0.00 0.00 82 1021.2
20210927134540 67 101 0.0 1.0 0.00 0.00 0.00 86 1021.3
20210927133054 64 0 0.0 1.0 0.00 0.00 0.00 92 1021.2
20210927131533 62 72 0.0 2.0 0.00 0.00 0.00 95 1021.0
20210927130055 60 86 0.0 2.0 0.00 0.00 0.00 96 1021.1
20210927124536 59 0 0.0 1.0 0.00 0.00 0.00 97 1021.0
20210927123117 59 0 0.0 1.0 0.00 0.00 0.00 96 1021.1
20210927121534 58 86 0.0 1.0 0.00 0.00 0.00 97 1020.9
20210927120050 58 0 0.0 0.0 0.00 0.00 0.00 96 1020.8
20210927114527 58 0 0.0 0.0 0.00 0.00 0.00 96 1020.9
20210927113055 58 0 0.0 0.0 0.00 0.00 0.00 96 1020.7
20210927111532 58 0 0.0 0.0 0.00 0.00 0.00 96 1020.7
20210927110037 58 0 0.0 0.0 0.00 0.00 0.00 96 1020.7
20210927104545 58 0 0.0 0.0 0.00 0.00 0.00 96 1020.6
20210927103030 58 0 0.0 0.0 0.00 0.00 0.00 96 1020.5
20210927101528 58 0 0.0 0.0 0.00 0.00 0.00 96 1020.0
20210927100049 58 0 0.0 0.0 0.00 0.00 0.00 96 1020.1
20210927094602 58 0 0.0 0.0 0.00 0.00 0.00 96 1020.0
20210927093027 59 0 0.0 0.0 0.00 0.00 0.00 96 1019.9
20210927091630 59 0 0.0 0.0 0.00 0.00 0.00 96 1019.9
20210927090028 59 0 0.0 0.0 0.00 0.00 0.00 96 1019.8
20210927084529 59 0 0.0 0.0 0.00 0.00 0.00 96 1019.9
20210927083046 60 0 0.0 0.0 0.00 0.00 0.00 96 1019.9
20210927081638 60 86 0.0 1.0 0.00 0.00 0.00 96 1019.9
20210927080025 59 0 0.0 0.0 0.00 0.00 0.00 95 1019.9
20210927074552 60 0 0.0 0.0 0.00 0.00 0.00 95 1020.0
20210927073133 60 0 0.0 0.0 0.00 0.00 0.00 95 1020.0
20210927071556 60 0 0.0 0.0 0.00 0.00 0.00 95 1020.1
20210927070047 61 0 0.0 0.0 0.00 0.00 0.00 95 1020.1
20210927064529 61 0 0.0 0.0 0.00 0.00 0.00 95 1020.2
20210927063043 61 0 0.0 0.0 0.00 0.00 0.00 95 1020.1
20210927061637 61 0 0.0 0.0 0.00 0.00 0.00 95 1020.2
20210927060052 61 0 0.0 0.0 0.00 0.00 0.00 94 1020.2
20210927054528 61 0 0.0 0.0 0.00 0.00 0.00 94 1020.1
20210927053054 62 0 0.0 0.0 0.00 0.00 0.00 94 1020.1
20210927051554 62 0 0.0 0.0 0.00 0.00 0.00 94 1020.3
20210927050116 62 0 0.0 0.0 0.00 0.00 0.00 94 1020.3
20210927044553 62 0 0.0 0.0 0.00 0.00 0.00 94 1020.2
20210927043038 63 0 0.0 0.0 0.00 0.00 0.00 93 1020.3
20210927041524 63 0 0.0 0.0 0.00 0.00 0.00 93 1020.2
20210927040042 63 0 0.0 0.0 0.00 0.00 0.00 92 1020.2
20210927034527 64 0 0.0 0.0 0.00 0.00 0.00 92 1020.3
20210927033032 64 0 0.0 0.0 0.00 0.00 0.00 91 1020.1
20210927031553 65 0 0.0 0.0 0.00 0.00 0.00 91 1020.0
20210927030028 65 0 0.0 0.0 0.00 0.00 0.00 90 1019.9
20210927024549 66 0 0.0 0.0 0.00 0.00 0.00 90 1019.8
20210927023027 66 0 0.0 0.0 0.00 0.00 0.00 90 1019.9
20210927021531 66 0 0.0 0.0 0.00 0.00 0.00 89 1019.8
20210927020026 67 0 0.0 0.0 0.00 0.00 0.00 88 1019.6